Platte City, Missouri
Current Conditions -  °F | °C
As of 12:53 PM on Saturday 25 Oct 2014 (Local Time) from KMCI Reporting Station
Scattered Clouds Scattered Clouds  
Wind Chill: 75°   Ceiling: Unl
Heat Index: 75°   Visibility: 10mi
Dew Point: 57°   Wind: 6mph
Humidity: 53%   Direction: 100°E
Pressure: 30.07"   Gusts: NA
Location:  39.37°N, 94.78°W
Report Text: KMCI 251753Z 10005KT 10SM SCT110 24/14 A3007 RMK AO2 SLP175 T02390139 10239 20106 58009 $
Loading
Personal Weather Stations






























Interactive Weather Map
Tropical Storm Tracking
New forecast layout! Learn more

10-Day Weather Forecast

Advertisements
Track Severe Weather on mobile